Terminal Aerodrome Forecast
Issued by NWS Memphis, TN

Home | Current Version | Previous Version | Text Only | Print | Product List | Glossary On
Versions: 1 2 3 4 5 6 7 8 9 10 11 12 13 14 15 16
000
FTUS44 KMEG 311700
TAFJBR
TAF
KJBR 311728Z 3118/0118 24006KT P6SM VCSH SCT020 OVC060
     FM010200 VRB03KT P6SM BKN050 OVC120
     FM010700 02002KT 4SM BR BKN040 OVC100
      TEMPO 0109/0112 2SM BR
     FM011300 05003KT P6SM BKN100=

USA.gov is the U.S. government's official web portal to all federal, state and local government web resources and services.